Time;durP1;ratioP1;P1;durP2;ratioP2;P2;SDS_P1;SDS_P2;PMS_P1;PMS_P2;Temp;Humidity;BMP_temperature;BMP_pressure;BME280_temperature;BME280_humidity;BME280_pressure;Samples;Min_cycle;Max_cycle;Signal;HPM_P1;HPM_P2
2022/10/23 00:00:33;;;;;;;;;;;20.20;71.90;;;;;;5068990;28;1046;-67
2022/10/23 00:02:59;;;;;;;;;;;20.20;71.90;;;;;;5069600;28;1969;-67
2022/10/23 00:05:24;;;;;;;;;;;20.20;71.90;;;;;;5068986;28;1220;-67
2022/10/23 00:07:53;;;;;;;;;;;20.20;71.90;;;;;;5067935;28;1272;-67
2022/10/23 00:10:19;;;;;;;;;;;20.20;71.90;;;;;;5067611;28;899;-67
2022/10/23 00:12:44;;;;;;;;;;;20.20;71.90;;;;;;5068209;28;1300;-67
2022/10/23 00:15:10;;;;;;;;;;;20.20;71.90;;;;;;5068484;28;893;-67
2022/10/23 00:17:35;;;;;;;;;;;20.20;71.90;;;;;;5069033;28;1348;-67
2022/10/23 00:20:01;;;;;;;;;;;20.20;71.90;;;;;;5069351;28;1633;-67
2022/10/23 00:22:26;;;;;;;;;;;20.20;71.90;;;;;;5069493;28;1897;-66
2022/10/23 00:24:52;;;;;;;;;;;20.20;72.10;;;;;;5069223;28;930;-66
2022/10/23 00:27:17;;;;;;;;;;;20.20;71.90;;;;;;5071203;28;1286;-67
2022/10/23 00:29:43;;;;;;;;;;;20.20;71.90;;;;;;5072627;28;950;-66
2022/10/23 00:32:08;;;;;;;;;;;20.20;72.00;;;;;;5072502;28;1352;-66
2022/10/23 00:34:34;;;;;;;;;;;20.20;71.90;;;;;;5072165;28;819;-66
2022/10/23 00:36:59;;;;;;;;;;;20.20;72.00;;;;;;5072025;28;3982;-69
2022/10/23 00:39:25;;;;;;;;;;;20.20;71.90;;;;;;5072788;28;1066;-68
2022/10/23 00:41:50;;;;;;;;;;;20.20;71.90;;;;;;5072330;28;1957;-67
2022/10/23 00:44:16;;;;;;;;;;;20.20;72.70;;;;;;5071765;28;860;-69
2022/10/23 00:46:41;;;;;;;;;;;20.20;71.90;;;;;;5072240;28;1276;-66
2022/10/23 00:49:07;;;;;;;;;;;20.20;71.90;;;;;;5072103;28;849;-67
2022/10/23 00:51:35;;;;;;;;;;;20.20;71.90;;;;;;5071172;28;1025;-68
2022/10/23 00:54:00;;;;;;;;;;;20.20;71.90;;;;;;5071681;28;938;-68
2022/10/23 00:56:25;;;;;;;;;;;20.20;72.00;;;;;;5070810;28;1259;-67
2022/10/23 00:58:51;;;;;;;;;;;20.20;71.90;;;;;;5072033;28;838;-67
2022/10/23 01:01:17;;;;;;;;;;;20.20;72.00;;;;;;5071783;28;1953;-69
2022/10/23 01:03:43;;;;;;;;;;;20.20;72.00;;;;;;5071566;28;1533;-68
2022/10/23 01:06:12;;;;;;;;;;;20.20;72.00;;;;;;5075159;28;1264;-69
2022/10/23 01:08:44;;;;;;;;;;;20.20;72.00;;;;;;5076421;28;1279;-67
2022/10/23 01:11:11;;;;;;;;;;;20.20;71.90;;;;;;5070722;28;1193;-67
2022/10/23 01:13:38;;;;;;;;;;;20.20;71.90;;;;;;5070615;28;1312;-66
2022/10/23 01:16:06;;;;;;;;;;;20.20;71.90;;;;;;5070234;28;935;-67
2022/10/23 01:18:37;;;;;;;;;;;20.20;72.00;;;;;;5071439;28;1314;-68
2022/10/23 01:21:04;;;;;;;;;;;20.20;71.90;;;;;;5071983;28;1913;-67
2022/10/23 01:23:29;;;;;;;;;;;20.20;71.90;;;;;;5070590;28;773;-68
2022/10/23 01:25:57;;;;;;;;;;;20.20;71.90;;;;;;5070619;28;821;-67
2022/10/23 01:28:43;;;;;;;;;;;20.20;72.00;;;;;;5070194;28;1339;-66
2022/10/23 01:31:10;;;;;;;;;;;20.20;72.00;;;;;;5071179;28;1222;-66
2022/10/23 01:33:38;;;;;;;;;;;20.20;71.90;;;;;;5070310;28;1085;-68
2022/10/23 01:36:04;;;;;;;;;;;20.20;71.90;;;;;;5071174;28;867;-67
2022/10/23 01:38:48;;;;;;;;;;;20.20;71.90;;;;;;5071171;28;1396;-67
2022/10/23 01:41:18;;;;;;;;;;;20.20;71.90;;;;;;5069992;28;1902;-68
2022/10/23 01:43:49;;;;;;;;;;;20.10;71.90;;;;;;5069586;28;1745;-68
2022/10/23 01:46:15;;;;;;;;;;;20.20;71.90;;;;;;5069264;28;1283;-67
2022/10/23 01:48:41;;;;;;;;;;;20.20;72.00;;;;;;5069839;28;864;-66
2022/10/23 01:51:07;;;;;;;;;;;20.10;71.90;;;;;;5069911;28;1345;-67
2022/10/23 01:53:33;;;;;;;;;;;20.10;71.90;;;;;;5078216;28;827;-68
2022/10/23 01:55:58;;;;;;;;;;;20.10;71.90;;;;;;5076335;28;921;-68
2022/10/23 01:58:24;;;;;;;;;;;20.10;71.90;;;;;;5069474;28;1494;-68
2022/10/23 02:00:50;;;;;;;;;;;20.10;71.90;;;;;;5069240;28;883;-69
2022/10/23 02:03:16;;;;;;;;;;;20.10;71.90;;;;;;5071295;28;798;-68
2022/10/23 02:05:41;;;;;;;;;;;20.10;71.90;;;;;;5069779;28;994;-67
2022/10/23 02:08:07;;;;;;;;;;;20.20;72.00;;;;;;5070439;28;1349;-67
2022/10/23 02:10:51;;;;;;;;;;;20.10;71.90;;;;;;5068910;28;1049;-68
2022/10/23 02:13:16;;;;;;;;;;;20.10;71.90;;;;;;5069820;28;1282;-68
2022/10/23 02:15:47;;;;;;;;;;;20.10;71.90;;;;;;5070635;28;880;-68
2022/10/23 02:18:21;;;;;;;;;;;20.10;71.90;;;;;;5069377;28;1381;-69
2022/10/23 02:20:49;;;;;;;;;;;20.10;71.90;;;;;;5070693;28;986;-68
2022/10/23 02:23:28;;;;;;;;;;;20.10;71.90;;;;;;5069139;28;1921;-67
2022/10/23 02:25:55;;;;;;;;;;;20.10;71.90;;;;;;5069059;28;876;-68
2022/10/23 02:28:26;;;;;;;;;;;20.10;72.00;;;;;;5069063;28;1253;-68
2022/10/23 02:30:52;;;;;;;;;;;20.10;72.00;;;;;;5068973;28;898;-68
2022/10/23 02:33:17;;;;;;;;;;;20.10;71.90;;;;;;5069901;28;1501;-67
2022/10/23 02:35:43;;;;;;;;;;;20.10;71.90;;;;;;5065220;28;827;-67
2022/10/23 02:38:28;;;;;;;;;;;20.10;71.90;;;;;;5070353;28;1275;-67
2022/10/23 02:40:53;;;;;;;;;;;20.10;72.00;;;;;;5070430;28;1917;-67
2022/10/23 02:43:21;;;;;;;;;;;20.10;72.00;;;;;;5069181;28;1014;-67
2022/10/23 02:45:53;;;;;;;;;;;20.20;72.00;;;;;;5068461;28;994;-67
2022/10/23 02:48:19;;;;;;;;;;;20.10;72.00;;;;;;5068604;28;1290;-68
2022/10/23 02:50:51;;;;;;;;;;;20.10;72.00;;;;;;5069304;28;891;-67
2022/10/23 02:53:31;;;;;;;;;;;20.10;72.00;;;;;;5069630;28;907;-67
2022/10/23 02:56:20;;;;;;;;;;;20.10;72.00;;;;;;5067947;28;2126;-68
2022/10/23 02:58:58;;;;;;;;;;;20.10;72.00;;;;;;5063116;28;1421;-68
2022/10/23 03:01:28;;;;;;;;;;;20.10;72.00;;;;;;5071204;28;2273;-68
2022/10/23 03:03:54;;;;;;;;;;;20.10;72.10;;;;;;5067878;28;1290;-68
2022/10/23 03:06:20;;;;;;;;;;;20.10;72.00;;;;;;5070078;28;1355;-68
2022/10/23 03:08:51;;;;;;;;;;;20.10;72.00;;;;;;5068735;28;859;-68
2022/10/23 03:11:17;;;;;;;;;;;20.10;72.00;;;;;;5069909;28;988;-68
2022/10/23 03:13:42;;;;;;;;;;;20.10;72.00;;;;;;5068184;28;1387;-67
2022/10/23 03:16:07;;;;;;;;;;;20.10;72.00;;;;;;5069906;28;1064;-67
2022/10/23 03:18:33;;;;;;;;;;;20.10;72.00;;;;;;5069642;28;1215;-67
2022/10/23 03:20:58;;;;;;;;;;;20.10;72.00;;;;;;5068410;28;1890;-67
2022/10/23 03:23:24;;;;;;;;;;;20.10;72.00;;;;;;5068636;28;966;-67
2022/10/23 03:25:51;;;;;;;;;;;20.10;72.00;;;;;;5068970;28;919;-67
2022/10/23 03:28:16;;;;;;;;;;;20.10;72.00;;;;;;5069993;28;1221;-67
2022/10/23 03:30:42;;;;;;;;;;;20.10;72.00;;;;;;5069394;28;1068;-67
2022/10/23 03:33:07;;;;;;;;;;;20.10;72.00;;;;;;5070063;28;1733;-67
2022/10/23 03:35:32;;;;;;;;;;;20.10;72.00;;;;;;5069267;28;827;-67
2022/10/23 03:37:58;;;;;;;;;;;20.10;72.00;;;;;;5069565;28;1250;-67
2022/10/23 03:40:23;;;;;;;;;;;20.10;72.00;;;;;;5069299;28;817;-67
2022/10/23 03:42:49;;;;;;;;;;;20.10;72.00;;;;;;5069828;28;1965;-67
2022/10/23 03:45:14;;;;;;;;;;;20.10;72.00;;;;;;5068990;28;927;-67
2022/10/23 03:47:40;;;;;;;;;;;20.10;72.00;;;;;;5069591;28;1338;-67
2022/10/23 03:50:06;;;;;;;;;;;20.20;72.00;;;;;;5070165;28;833;-67
2022/10/23 03:52:32;;;;;;;;;;;20.10;71.90;;;;;;5070110;28;907;-67
2022/10/23 03:54:57;;;;;;;;;;;20.20;71.90;;;;;;5068985;28;899;-67
2022/10/23 03:57:23;;;;;;;;;;;20.20;72.00;;;;;;5069489;28;1351;-67
2022/10/23 03:59:48;;;;;;;;;;;20.20;71.90;;;;;;5068456;28;1412;-67
2022/10/23 04:02:14;;;;;;;;;;;20.20;71.90;;;;;;5071604;28;1906;-67
2022/10/23 04:04:39;;;;;;;;;;;20.20;71.90;;;;;;5073005;28;862;-67
2022/10/23 04:07:05;;;;;;;;;;;20.20;71.80;;;;;;5072841;28;1193;-67
2022/10/23 04:09:30;;;;;;;;;;;20.20;71.80;;;;;;5073261;28;885;-67
2022/10/23 04:11:56;;;;;;;;;;;20.20;71.80;;;;;;5055039;28;1386;-67
2022/10/23 04:14:21;;;;;;;;;;;20.20;71.70;;;;;;5072597;28;1153;-67
2022/10/23 04:16:46;;;;;;;;;;;20.20;71.70;;;;;;5072947;28;1270;-67
2022/10/23 04:19:12;;;;;;;;;;;20.20;71.60;;;;;;5073407;28;1010;-67
2022/10/23 04:21:37;;;;;;;;;;;20.30;71.60;;;;;;5073191;28;1951;-67
2022/10/23 04:24:03;;;;;;;;;;;20.30;71.50;;;;;;5072529;28;883;-67
2022/10/23 04:26:28;;;;;;;;;;;20.30;71.40;;;;;;5073161;28;1292;-67
2022/10/23 04:28:54;;;;;;;;;;;20.30;71.20;;;;;;5071880;28;845;-67
2022/10/23 04:31:19;;;;;;;;;;;20.40;71.10;;;;;;5072438;28;1343;-67
2022/10/23 04:33:45;;;;;;;;;;;20.40;71.00;;;;;;5072102;28;873;-68
2022/10/23 04:36:10;;;;;;;;;;;20.40;70.90;;;;;;5072780;28;935;-67
2022/10/23 04:38:35;;;;;;;;;;;20.40;70.90;;;;;;5073042;28;823;-67
2022/10/23 04:41:01;;;;;;;;;;;20.40;70.70;;;;;;5072999;28;1937;-67
2022/10/23 04:43:26;;;;;;;;;;;20.50;70.70;;;;;;5073135;28;831;-67
2022/10/23 04:45:52;;;;;;;;;;;20.50;70.60;;;;;;5071631;28;850;-67
2022/10/23 04:48:17;;;;;;;;;;;20.50;70.50;;;;;;5072468;28;1717;-67
2022/10/23 04:50:43;;;;;;;;;;;20.50;70.40;;;;;;5072701;28;880;-67
2022/10/23 04:53:08;;;;;;;;;;;20.50;70.40;;;;;;5071084;28;1249;-67
2022/10/23 04:55:34;;;;;;;;;;;20.60;70.40;;;;;;5072139;28;852;-67
2022/10/23 04:57:59;;;;;;;;;;;20.60;70.30;;;;;;5072206;28;1230;-67
2022/10/23 05:00:24;;;;;;;;;;;20.60;70.30;;;;;;5072449;28;1009;-67
2022/10/23 05:02:50;;;;;;;;;;;20.60;70.20;;;;;;5072090;28;1960;-67
2022/10/23 05:05:15;;;;;;;;;;;20.60;70.10;;;;;;5071855;28;1195;-67
2022/10/23 05:07:41;;;;;;;;;;;20.60;70.10;;;;;;5071777;28;1256;-67
2022/10/23 05:10:06;;;;;;;;;;;20.60;70.00;;;;;;5070983;28;862;-67
2022/10/23 05:12:32;;;;;;;;;;;20.70;70.80;;;;;;5071495;28;1076;-67
2022/10/23 05:14:57;;;;;;;;;;;20.60;69.90;;;;;;5071515;28;795;-68
2022/10/23 05:17:25;;;;;;;;;;;20.70;69.90;;;;;;5071601;28;1275;-67
2022/10/23 05:19:52;;;;;;;;;;;20.70;69.90;;;;;;5072210;28;1045;-67
2022/10/23 05:22:18;;;;;;;;;;;20.70;69.90;;;;;;5071783;28;1902;-67
2022/10/23 05:24:44;;;;;;;;;;;20.70;69.90;;;;;;5069661;28;816;-68
2022/10/23 05:27:09;;;;;;;;;;;20.70;69.80;;;;;;5071572;28;1259;-67
2022/10/23 05:29:34;;;;;;;;;;;20.70;69.80;;;;;;5071624;28;800;-67
2022/10/23 05:32:01;;;;;;;;;;;20.70;69.70;;;;;;5070517;28;1344;-67
2022/10/23 05:34:27;;;;;;;;;;;20.70;69.70;;;;;;5069762;28;1073;-67
2022/10/23 05:36:52;;;;;;;;;;;20.70;69.60;;;;;;5070535;28;1440;-67
2022/10/23 05:39:18;;;;;;;;;;;20.80;69.70;;;;;;5071674;28;859;-67
2022/10/23 05:41:43;;;;;;;;;;;20.80;69.60;;;;;;5072013;28;1963;-67
2022/10/23 05:44:08;;;;;;;;;;;20.90;69.40;;;;;;5071096;28;1037;-67
2022/10/23 05:46:38;;;;;;;;;;;21.00;69.30;;;;;;5071627;28;1275;-67
2022/10/23 05:49:04;;;;;;;;;;;21.10;69.20;;;;;;5070861;28;990;-67
2022/10/23 05:51:29;;;;;;;;;;;21.20;69.00;;;;;;5070585;28;912;-67
2022/10/23 05:53:54;;;;;;;;;;;21.30;68.80;;;;;;5069991;28;1271;-67
2022/10/23 05:56:20;;;;;;;;;;;21.40;68.50;;;;;;5071231;28;1233;-67
2022/10/23 05:58:45;;;;;;;;;;;21.50;68.30;;;;;;5071247;28;887;-67
2022/10/23 06:01:11;;;;;;;;;;;21.50;68.00;;;;;;5071350;28;1914;-67
2022/10/23 06:03:37;;;;;;;;;;;21.60;67.70;;;;;;5067509;28;1050;-67
2022/10/23 06:06:03;;;;;;;;;;;21.70;67.40;;;;;;5069546;28;879;-67
2022/10/23 06:08:28;;;;;;;;;;;21.80;67.20;;;;;;5071064;28;1213;-67
2022/10/23 06:10:54;;;;;;;;;;;21.80;67.00;;;;;;5069435;28;2147;-68
2022/10/23 06:13:19;;;;;;;;;;;21.90;66.80;;;;;;5071845;28;2245;-69
2022/10/23 06:15:45;;;;;;;;;;;21.90;66.50;;;;;;5065362;28;1332;-69
2022/10/23 06:18:10;;;;;;;;;;;21.90;66.40;;;;;;5062638;28;1352;-69
2022/10/23 06:20:36;;;;;;;;;;;22.00;66.30;;;;;;5068584;28;817;-70
2022/10/23 06:23:02;;;;;;;;;;;22.00;66.20;;;;;;5068071;28;1906;-70
2022/10/23 06:25:27;;;;;;;;;;;22.10;66.10;;;;;;5067376;28;873;-69
2022/10/23 06:27:52;;;;;;;;;;;22.10;66.10;;;;;;5068678;28;1271;-68
2022/10/23 06:30:18;;;;;;;;;;;22.10;66.00;;;;;;5068488;28;855;-68
2022/10/23 06:32:43;;;;;;;;;;;22.10;66.00;;;;;;5069004;28;1405;-69
2022/10/23 06:35:09;;;;;;;;;;;22.10;66.00;;;;;;5068440;28;958;-69
2022/10/23 06:37:34;;;;;;;;;;;22.10;66.00;;;;;;5068704;28;1264;-68
2022/10/23 06:40:00;;;;;;;;;;;22.10;66.00;;;;;;5068820;28;918;-68
2022/10/23 06:42:25;;;;;;;;;;;22.10;66.00;;;;;;5068966;28;2123;-68
2022/10/23 06:44:50;;;;;;;;;;;22.10;66.00;;;;;;5067829;28;859;-68
2022/10/23 06:47:16;;;;;;;;;;;22.10;66.10;;;;;;5066893;28;1217;-69
2022/10/23 06:49:41;;;;;;;;;;;22.10;66.00;;;;;;5069022;28;924;-68
2022/10/23 06:52:07;;;;;;;;;;;22.10;66.00;;;;;;5069700;28;844;-69
2022/10/23 06:54:32;;;;;;;;;;;22.10;66.00;;;;;;5068498;28;884;-68
2022/10/23 06:56:58;;;;;;;;;;;22.10;66.10;;;;;;5084820;28;1272;-68
2022/10/23 06:59:23;;;;;;;;;;;22.00;66.00;;;;;;5070072;28;858;-67
2022/10/23 07:01:49;;;;;;;;;;;22.10;66.10;;;;;;5067652;28;2444;-68
2022/10/23 07:04:14;;;;;;;;;;;22.10;66.10;;;;;;5072286;28;1648;-68
2022/10/23 07:06:40;;;;;;;;;;;22.00;66.10;;;;;;5069630;28;1390;-68
2022/10/23 07:09:05;;;;;;;;;;;22.00;66.20;;;;;;5071077;28;1415;-68
2022/10/23 07:11:31;;;;;;;;;;;22.00;66.20;;;;;;5069009;28;851;-67
2022/10/23 07:13:56;;;;;;;;;;;22.00;66.20;;;;;;5068424;28;1239;-68
2022/10/23 07:16:22;;;;;;;;;;;22.00;66.20;;;;;;5069867;28;1245;-68
2022/10/23 07:18:48;;;;;;;;;;;22.00;66.30;;;;;;5069730;28;796;-68
2022/10/23 07:21:13;;;;;;;;;;;22.00;66.30;;;;;;5067437;28;1957;-67
2022/10/23 07:23:39;;;;;;;;;;;22.00;66.40;;;;;;5069947;28;780;-68
2022/10/23 07:26:05;;;;;;;;;;;22.00;66.40;;;;;;5070053;28;863;-68
2022/10/23 07:28:30;;;;;;;;;;;21.90;66.40;;;;;;5067887;28;1283;-68
2022/10/23 07:30:59;;;;;;;;;;;21.90;66.50;;;;;;5070095;28;925;-68
2022/10/23 07:33:24;;;;;;;;;;;21.90;66.60;;;;;;5069677;28;1490;-68
2022/10/23 07:35:49;;;;;;;;;;;21.90;66.60;;;;;;5073686;28;851;-68
2022/10/23 07:38:16;;;;;;;;;;;21.90;66.70;;;;;;5073959;28;1279;-68
2022/10/23 07:40:42;;;;;;;;;;;21.80;66.70;;;;;;5072647;28;840;-68
2022/10/23 07:43:07;;;;;;;;;;;21.80;66.80;;;;;;5072789;28;1955;-68
2022/10/23 07:45:32;;;;;;;;;;;21.80;66.80;;;;;;5073343;28;1022;-68
2022/10/23 07:47:58;;;;;;;;;;;21.80;66.80;;;;;;5072482;28;1380;-67
2022/10/23 07:50:23;;;;;;;;;;;21.80;66.90;;;;;;5073583;28;1062;-68
2022/10/23 07:52:49;;;;;;;;;;;21.80;66.90;;;;;;5073188;28;820;-68
2022/10/23 07:55:14;;;;;;;;;;;21.80;66.90;;;;;;5073216;28;948;-68
2022/10/23 07:57:40;;;;;;;;;;;21.80;67.00;;;;;;5073364;28;1247;-67
2022/10/23 08:00:05;;;;;;;;;;;21.80;67.00;;;;;;5073439;28;1034;-68
2022/10/23 08:02:31;;;;;;;;;;;21.80;67.00;;;;;;5072080;28;1901;-67
2022/10/23 08:04:56;;;;;;;;;;;21.80;67.00;;;;;;5072909;28;958;-68
2022/10/23 08:07:22;;;;;;;;;;;21.70;67.00;;;;;;5071832;28;1361;-68
2022/10/23 08:09:47;;;;;;;;;;;21.70;67.00;;;;;;5072755;28;844;-68
2022/10/23 08:12:13;;;;;;;;;;;21.70;67.00;;;;;;5073045;28;1326;-68
2022/10/23 08:14:38;;;;;;;;;;;21.70;67.10;;;;;;5072706;28;860;-68
2022/10/23 08:17:04;;;;;;;;;;;21.70;67.20;;;;;;5072889;28;1266;-68
2022/10/23 08:19:29;;;;;;;;;;;21.70;67.20;;;;;;5073292;28;873;-68
2022/10/23 08:21:56;;;;;;;;;;;21.70;67.30;;;;;;5072974;28;1902;-68
2022/10/23 08:24:21;;;;;;;;;;;21.70;67.30;;;;;;5071396;28;1113;-69
2022/10/23 08:26:47;;;;;;;;;;;21.70;67.40;;;;;;5072515;28;1495;-69
2022/10/23 08:29:13;;;;;;;;;;;21.60;67.40;;;;;;5072885;28;886;-69
2022/10/23 08:31:38;;;;;;;;;;;21.60;67.40;;;;;;5071994;28;1389;-67
2022/10/23 08:34:04;;;;;;;;;;;21.60;67.50;;;;;;5072698;28;962;-68
2022/10/23 08:36:29;;;;;;;;;;;21.60;67.50;;;;;;5072161;28;1285;-68
2022/10/23 08:38:55;;;;;;;;;;;21.60;67.60;;;;;;5071873;28;894;-68
2022/10/23 08:41:34;;;;;;;;;;;21.60;67.60;;;;;;5072227;28;1902;-67
2022/10/23 08:44:08;;;;;;;;;;;21.50;67.60;;;;;;5069953;28;1331;-69
2022/10/23 08:46:35;;;;;;;;;;;21.50;67.70;;;;;;5070275;28;1212;-68
2022/10/23 08:49:26;;;;;;;;;;;21.50;67.70;;;;;;5071338;28;879;-70
2022/10/23 08:51:52;;;;;;;;;;;21.50;67.70;;;;;;5071921;28;1005;-67
2022/10/23 08:54:19;;;;;;;;;;;21.50;67.80;;;;;;5070038;28;891;-68
2022/10/23 08:56:48;;;;;;;;;;;21.50;67.90;;;;;;5070860;28;1288;-68
2022/10/23 08:59:19;;;;;;;;;;;21.50;67.90;;;;;;5071175;28;1085;-68
2022/10/23 09:01:53;;;;;;;;;;;21.40;67.90;;;;;;5070861;28;1898;-68
2022/10/23 09:04:19;;;;;;;;;;;21.50;68.00;;;;;;5071400;28;893;-67
2022/10/23 09:06:51;;;;;;;;;;;21.40;68.00;;;;;;5070606;28;1306;-68
2022/10/23 09:09:20;;;;;;;;;;;21.40;68.10;;;;;;5070887;28;1050;-69
2022/10/23 09:11:48;;;;;;;;;;;21.40;68.20;;;;;;5070917;28;1277;-69
2022/10/23 09:14:14;;;;;;;;;;;21.40;68.20;;;;;;5070160;28;850;-69
2022/10/23 09:16:46;;;;;;;;;;;21.40;68.30;;;;;;5071699;28;1332;-68
2022/10/23 09:19:16;;;;;;;;;;;21.40;68.30;;;;;;5070440;28;989;-69
2022/10/23 09:21:43;;;;;;;;;;;21.40;68.40;;;;;;5071584;28;1945;-69
2022/10/23 09:24:18;;;;;;;;;;;21.30;68.40;;;;;;5070337;28;1042;-70
2022/10/23 09:26:49;;;;;;;;;;;21.30;68.40;;;;;;5069940;28;1360;-69
2022/10/23 09:29:28;;;;;;;;;;;21.30;68.50;;;;;;5071558;28;995;-69
2022/10/23 09:31:54;;;;;;;;;;;21.30;68.60;;;;;;5070041;28;1389;-69
2022/10/23 09:34:21;;;;;;;;;;;21.30;68.60;;;;;;5071112;28;1026;-69
2022/10/23 09:36:50;;;;;;;;;;;21.30;68.70;;;;;;5071302;28;1343;-70
2022/10/23 09:39:20;;;;;;;;;;;21.30;68.70;;;;;;5070117;28;1581;-69
2022/10/23 09:41:45;;;;;;;;;;;21.30;68.80;;;;;;5070050;28;1959;-68
2022/10/23 09:44:17;;;;;;;;;;;21.20;68.70;;;;;;5068195;28;2112;-67
2022/10/23 09:46:43;;;;;;;;;;;21.20;68.80;;;;;;5064616;28;1335;-70
2022/10/23 09:49:22;;;;;;;;;;;21.20;68.80;;;;;;5071705;28;1331;-70
2022/10/23 09:51:53;;;;;;;;;;;21.20;68.90;;;;;;5069583;28;1108;-71
2022/10/23 09:54:20;;;;;;;;;;;21.20;68.90;;;;;;5068757;28;962;-67
2022/10/23 09:56:46;;;;;;;;;;;21.20;69.00;;;;;;5068076;28;1232;-68
2022/10/23 09:59:11;;;;;;;;;;;21.20;69.00;;;;;;5068104;28;872;-68
2022/10/23 10:01:53;;;;;;;;;;;21.20;69.00;;;;;;5069115;28;1969;-68
2022/10/23 10:04:29;;;;;;;;;;;21.20;69.80;;;;;;5067018;28;887;-67
2022/10/23 10:06:58;;;;;;;;;;;21.20;69.10;;;;;;5067917;28;1401;-66
2022/10/23 10:09:24;;;;;;;;;;;21.20;69.20;;;;;;5068507;28;866;-68
2022/10/23 10:11:53;;;;;;;;;;;21.10;69.20;;;;;;5069461;28;960;-67
2022/10/23 10:14:30;;;;;;;;;;;21.10;69.20;;;;;;5067427;28;827;-67
2022/10/23 10:17:15;;;;;;;;;;;21.10;69.20;;;;;;5068647;28;1205;-73
2022/10/23 10:19:52;;;;;;;;;;;21.10;69.30;;;;;;5069317;28;879;-69
2022/10/23 10:22:33;;;;;;;;;;;21.10;69.30;;;;;;5068338;28;1905;-68
2022/10/23 10:25:18;;;;;;;;;;;21.10;69.40;;;;;;5067704;28;966;-72
2022/10/23 10:28:04;;;;;;;;;;;21.10;69.40;;;;;;5069195;28;1338;-67
2022/10/23 10:30:33;;;;;;;;;;;21.10;69.30;;;;;;5070548;28;1101;-67
2022/10/23 10:33:13;;;;;;;;;;;21.10;69.40;;;;;;5068501;28;1359;-67
2022/10/23 10:35:42;;;;;;;;;;;21.00;69.40;;;;;;5069533;28;899;-67
2022/10/23 10:38:20;;;;;;;;;;;21.00;69.50;;;;;;5052084;28;1373;-67
2022/10/23 10:40:53;;;;;;;;;;;21.00;69.50;;;;;;5068410;28;824;-67
2022/10/23 10:43:23;;;;;;;;;;;21.00;69.50;;;;;;5069108;28;1961;-67
2022/10/23 10:45:52;;;;;;;;;;;21.00;69.60;;;;;;5069306;28;828;-67
2022/10/23 10:48:20;;;;;;;;;;;21.00;69.60;;;;;;5068726;28;1283;-67
2022/10/23 10:50:51;;;;;;;;;;;21.00;69.60;;;;;;5068470;28;1030;-67
2022/10/23 10:53:22;;;;;;;;;;;21.00;69.60;;;;;;5069236;28;990;-67
2022/10/23 10:55:49;;;;;;;;;;;21.00;69.70;;;;;;5069532;28;2173;-68
2022/10/23 10:58:15;;;;;;;;;;;21.00;69.70;;;;;;5068525;28;1855;-67
2022/10/23 11:00:41;;;;;;;;;;;21.00;69.70;;;;;;5068965;28;1875;-67
2022/10/23 11:03:15;;;;;;;;;;;21.00;69.80;;;;;;5069563;28;1910;-68
2022/10/23 11:05:41;;;;;;;;;;;20.90;69.70;;;;;;5070634;28;1334;-67
2022/10/23 11:08:26;;;;;;;;;;;20.90;69.70;;;;;;5073772;28;1402;-68
2022/10/23 11:10:53;;;;;;;;;;;20.90;69.80;;;;;;5068311;28;836;-68
2022/10/23 11:13:39;;;;;;;;;;;20.90;69.80;;;;;;5068908;28;1296;-68
2022/10/23 11:16:16;;;;;;;;;;;20.90;69.80;;;;;;5070151;28;1273;-67
2022/10/23 11:18:43;;;;;;;;;;;20.90;69.80;;;;;;5068338;28;829;-68
2022/10/23 11:21:11;;;;;;;;;;;20.90;69.90;;;;;;5068408;28;1533;-68
2022/10/23 11:23:37;;;;;;;;;;;20.90;69.90;;;;;;5070040;28;883;-68
2022/10/23 11:26:08;;;;;;;;;;;20.90;70.00;;;;;;5069858;28;965;-68
2022/10/23 11:28:37;;;;;;;;;;;20.90;70.00;;;;;;5068579;28;1292;-68
2022/10/23 11:31:05;;;;;;;;;;;20.90;70.10;;;;;;5069174;28;943;-68
2022/10/23 11:33:35;;;;;;;;;;;20.90;70.00;;;;;;5071708;28;1559;-68
2022/10/23 11:36:20;;;;;;;;;;;20.90;70.10;;;;;;5068056;28;872;-68
2022/10/23 11:38:46;;;;;;;;;;;20.80;70.00;;;;;;5073720;28;1298;-68
2022/10/23 11:41:18;;;;;;;;;;;20.80;70.10;;;;;;5066914;28;1109;-67
2022/10/23 11:43:50;;;;;;;;;;;20.90;70.20;;;;;;5068889;28;903;-68
2022/10/23 11:46:21;;;;;;;;;;;20.90;70.20;;;;;;5068638;28;1269;-68
2022/10/23 11:48:47;;;;;;;;;;;20.80;70.10;;;;;;5069743;28;852;-68
2022/10/23 11:51:33;;;;;;;;;;;20.80;70.20;;;;;;5068567;28;1290;-68
2022/10/23 11:54:14;;;;;;;;;;;20.80;70.20;;;;;;5068554;28;1293;-67
2022/10/23 11:56:49;;;;;;;;;;;20.80;70.20;;;;;;5069379;28;1312;-67
2022/10/23 11:59:24;;;;;;;;;;;20.80;70.20;;;;;;5068436;28;1539;-67
2022/10/23 12:01:50;;;;;;;;;;;20.80;70.20;;;;;;5069085;28;1950;-67
2022/10/23 12:04:17;;;;;;;;;;;20.80;70.30;;;;;;5071356;28;1466;-67
2022/10/23 12:06:42;;;;;;;;;;;20.80;70.30;;;;;;5068024;28;1531;-67
2022/10/23 12:09:20;;;;;;;;;;;20.80;70.30;;;;;;5070517;28;1295;-67
2022/10/23 12:11:46;;;;;;;;;;;20.80;70.40;;;;;;5069098;28;1033;-67
2022/10/23 12:14:44;;;;;;;;;;;20.80;70.40;;;;;;5067020;28;895;-66
2022/10/23 12:17:22;;;;;;;;;;;20.80;70.30;;;;;;5056447;28;1498;-67
2022/10/23 12:20:08;;;;;;;;;;;20.80;70.10;;;;;;5068776;28;882;-66
2022/10/23 12:22:46;;;;;;;;;;;20.80;69.70;;;;;;5071515;28;1961;-66
2022/10/23 12:25:15;;;;;;;;;;;20.80;69.00;;;;;;5071187;28;927;-66
2022/10/23 12:27:51;;;;;;;;;;;20.80;68.00;;;;;;5070815;28;1260;-66
2022/10/23 12:30:19;;;;;;;;;;;20.80;67.70;;;;;;5071577;28;1082;-65
2022/10/23 12:32:59;;;;;;;;;;;20.80;67.70;;;;;;5071679;28;1083;-66
2022/10/23 12:35:46;;;;;;;;;;;20.70;67.70;;;;;;5071657;28;891;-66
2022/10/23 12:38:15;;;;;;;;;;;20.70;67.80;;;;;;5070504;28;1255;-65
2022/10/23 12:40:44;;;;;;;;;;;20.70;67.80;;;;;;5071346;28;1081;-65
2022/10/23 12:43:19;;;;;;;;;;;20.70;68.00;;;;;;5070422;28;1977;-65
2022/10/23 12:45:45;;;;;;;;;;;20.70;67.70;;;;;;5070643;28;939;-65
2022/10/23 12:48:20;;;;;;;;;;;20.70;67.60;;;;;;5071325;28;1247;-65
2022/10/23 12:50:51;;;;;;;;;;;20.70;67.70;;;;;;5072217;28;836;-65
2022/10/23 12:53:17;;;;;;;;;;;20.70;67.70;;;;;;5071948;28;867;-65
2022/10/23 12:55:59;;;;;;;;;;;20.70;67.80;;;;;;5071886;28;860;-65
2022/10/23 12:58:31;;;;;;;;;;;20.70;68.00;;;;;;5072134;28;1264;-66
2022/10/23 13:00:57;;;;;;;;;;;20.70;67.90;;;;;;5072269;28;882;-65
2022/10/23 13:03:23;;;;;;;;;;;20.70;67.70;;;;;;5071086;28;1906;-66
2022/10/23 13:05:49;;;;;;;;;;;20.70;67.90;;;;;;5071386;28;982;-66
2022/10/23 13:08:15;;;;;;;;;;;20.70;67.70;;;;;;5075202;28;1277;-66
2022/10/23 13:10:40;;;;;;;;;;;20.70;67.70;;;;;;5071102;28;832;-66
2022/10/23 13:13:06;;;;;;;;;;;20.70;67.80;;;;;;5070713;28;1368;-66
2022/10/23 13:15:39;;;;;;;;;;;20.70;67.80;;;;;;5068601;28;843;-66
2022/10/23 13:18:05;;;;;;;;;;;20.60;67.80;;;;;;5071536;28;1291;-67
2022/10/23 13:20:35;;;;;;;;;;;20.60;67.90;;;;;;5071342;28;848;-67
2022/10/23 13:23:08;;;;;;;;;;;20.60;68.00;;;;;;5070392;28;1906;-66
2022/10/23 13:25:34;;;;;;;;;;;20.60;67.60;;;;;;5069952;28;899;-66
2022/10/23 13:28:18;;;;;;;;;;;20.70;67.70;;;;;;5070279;28;1804;-66
2022/10/23 13:30:46;;;;;;;;;;;20.70;67.70;;;;;;5071562;28;951;-66
2022/10/23 13:33:24;;;;;;;;;;;20.60;67.60;;;;;;5071253;28;1368;-66
2022/10/23 13:35:56;;;;;;;;;;;20.60;67.70;;;;;;5070934;28;881;-67
2022/10/23 13:38:31;;;;;;;;;;;20.60;67.60;;;;;;5071213;28;1258;-68
2022/10/23 13:40:57;;;;;;;;;;;20.60;67.80;;;;;;5071047;28;810;-66
2022/10/23 13:43:22;;;;;;;;;;;20.60;68.00;;;;;;5070132;28;1910;-65
2022/10/23 13:45:48;;;;;;;;;;;20.60;68.10;;;;;;5069789;28;1018;-65
2022/10/23 13:48:14;;;;;;;;;;;20.60;68.20;;;;;;5071275;28;1285;-66
2022/10/23 13:50:39;;;;;;;;;;;20.60;68.30;;;;;;5071923;28;839;-65
2022/10/23 13:53:04;;;;;;;;;;;20.60;68.40;;;;;;5071429;28;1608;-65
2022/10/23 13:55:30;;;;;;;;;;;20.60;68.50;;;;;;5070876;28;810;-66
2022/10/23 13:57:55;;;;;;;;;;;20.60;68.50;;;;;;5070479;28;1326;-66
2022/10/23 14:00:21;;;;;;;;;;;20.60;68.60;;;;;;5070725;28;1942;-66
2022/10/23 14:02:46;;;;;;;;;;;20.60;68.70;;;;;;5069592;28;2036;-66
2022/10/23 14:05:12;;;;;;;;;;;20.50;68.80;;;;;;5070776;28;1284;-66
2022/10/23 14:07:37;;;;;;;;;;;20.60;68.80;;;;;;5069539;28;1878;-66
2022/10/23 14:10:03;;;;;;;;;;;20.60;69.00;;;;;;5072469;28;1396;-67
2022/10/23 14:12:28;;;;;;;;;;;20.60;69.00;;;;;;5070656;28;1271;-64
2022/10/23 14:14:54;;;;;;;;;;;20.50;69.00;;;;;;5070222;28;922;-67
2022/10/23 14:17:19;;;;;;;;;;;20.60;69.00;;;;;;5070572;28;1311;-65
2022/10/23 14:19:45;;;;;;;;;;;20.60;69.00;;;;;;5071409;28;891;-65
2022/10/23 14:22:10;;;;;;;;;;;20.50;69.00;;;;;;5071180;28;1894;-66
2022/10/23 14:24:36;;;;;;;;;;;20.50;69.10;;;;;;5070500;28;842;-66
2022/10/23 14:27:01;;;;;;;;;;;20.60;69.20;;;;;;5069525;28;1263;-65
2022/10/23 14:29:27;;;;;;;;;;;20.60;69.20;;;;;;5070038;28;965;-66
2022/10/23 14:31:52;;;;;;;;;;;20.50;69.20;;;;;;5071712;28;1430;-66
2022/10/23 14:34:17;;;;;;;;;;;20.50;69.30;;;;;;5069915;28;837;-65
2022/10/23 14:36:43;;;;;;;;;;;20.50;69.30;;;;;;5070477;28;1192;-66
2022/10/23 14:39:08;;;;;;;;;;;20.50;69.40;;;;;;5070465;28;1028;-65
2022/10/23 14:41:34;;;;;;;;;;;20.50;69.40;;;;;;5069803;28;1886;-65